createdAt,value
2023-05-24T00:01:43.485Z,12.40
2023-05-24T00:04:12.283Z,12.40
2023-05-24T00:06:40.468Z,12.70
2023-05-24T00:09:09.273Z,12.50
2023-05-24T00:11:39.159Z,12.80
2023-05-24T00:14:07.768Z,12.20
2023-05-24T00:16:37.098Z,12.50
2023-05-24T00:19:08.544Z,12.50
2023-05-24T00:24:05.077Z,12.50
2023-05-24T00:26:33.095Z,12.50
2023-05-24T00:29:01.082Z,12.50
2023-05-24T00:31:29.456Z,12.50
2023-05-24T00:41:26.035Z,12.50
2023-05-24T00:43:54.705Z,12.60
2023-05-24T00:46:28.063Z,12.70
2023-05-24T00:48:57.066Z,12.80
2023-05-24T00:51:28.264Z,12.70
2023-05-24T00:53:58.854Z,12.70
2023-05-24T00:58:58.213Z,12.60
2023-05-24T01:01:31.610Z,12.70
2023-05-24T01:04:02.839Z,12.60
2023-05-24T01:06:33.506Z,12.60
2023-05-24T01:09:15.156Z,12.60
2023-05-24T01:12:02.484Z,12.30
2023-05-24T01:14:41.178Z,12.50
2023-05-24T01:17:16.791Z,12.50
2023-05-24T01:20:07.439Z,12.50
2023-05-24T01:23:07.423Z,12.50
2023-05-24T01:25:48.643Z,12.50
2023-05-24T01:28:19.994Z,12.40
2023-05-24T01:30:50.563Z,12.50
2023-05-24T01:33:19.274Z,12.50
2023-05-24T01:38:19.882Z,12.50
2023-05-24T01:40:51.466Z,12.50
2023-05-24T01:43:31.334Z,12.50
2023-05-24T01:46:06.475Z,12.50
2023-05-24T01:48:44.065Z,12.50
2023-05-24T01:51:17.687Z,12.50
2023-05-24T01:53:50.430Z,12.50
2023-05-24T01:56:20.911Z,12.40
2023-05-24T01:58:55.435Z,12.40
2023-05-24T02:01:24.664Z,12.30
2023-05-24T02:03:53.738Z,12.30
2023-05-24T02:06:23.840Z,12.30
2023-05-24T02:08:53.352Z,12.30
2023-05-24T02:11:23.579Z,12.30
2023-05-24T02:13:53.039Z,12.30
2023-05-24T02:16:24.088Z,12.30
2023-05-24T02:18:52.315Z,12.30
2023-05-24T02:26:19.635Z,12.20
2023-05-24T02:28:48.533Z,12.10
2023-05-24T02:31:19.655Z,12.00
2023-05-24T02:33:47.906Z,12.00
2023-05-24T02:38:44.874Z,11.90
2023-05-24T02:41:17.864Z,11.90
2023-05-24T02:43:46.278Z,11.90
2023-05-24T02:46:14.892Z,11.80
2023-05-24T02:48:44.272Z,11.90
2023-05-24T02:51:12.294Z,11.80
2023-05-24T02:56:13.814Z,11.80
2023-05-24T03:01:10.859Z,11.80
2023-05-24T03:03:39.263Z,11.80
2023-05-24T03:06:09.359Z,11.70
2023-05-24T03:08:38.565Z,11.70
2023-05-24T03:11:07.364Z,11.70
2023-05-24T03:13:35.452Z,11.70
2023-05-24T03:23:30.418Z,11.50
2023-05-24T03:25:58.387Z,11.60
2023-05-24T03:35:55.783Z,11.50
2023-05-24T03:38:24.103Z,11.50
2023-05-24T03:40:53.875Z,11.40
2023-05-24T03:43:23.365Z,11.40
2023-05-24T03:45:52.242Z,11.40
2023-05-24T03:50:49.070Z,11.40
2023-05-24T03:53:18.150Z,11.00
2023-05-24T03:55:46.476Z,11.30
2023-05-24T03:58:16.918Z,11.30
2023-05-24T04:00:47.663Z,11.30
2023-05-24T04:03:16.622Z,11.20
2023-05-24T04:05:47.301Z,11.20
2023-05-24T04:10:44.799Z,11.20
2023-05-24T04:13:13.216Z,11.20
2023-05-24T04:15:43.482Z,11.20
2023-05-24T04:18:12.318Z,11.10
2023-05-24T04:23:10.493Z,11.20
2023-05-24T04:28:10.224Z,11.20
2023-05-24T04:30:38.833Z,11.10
2023-05-24T04:33:08.986Z,11.10
2023-05-24T04:35:38.223Z,11.10
2023-05-24T04:38:06.848Z,11.20
2023-05-24T04:40:35.120Z,11.10
2023-05-24T04:43:03.551Z,11.00
2023-05-24T04:45:33.414Z,11.00
2023-05-24T04:48:04.606Z,11.00
2023-05-24T04:50:35.675Z,11.00
2023-05-24T04:53:04.270Z,10.90
2023-05-24T04:55:32.799Z,10.80
2023-05-24T04:58:00.761Z,10.80
2023-05-24T05:00:28.819Z,10.80
2023-05-24T05:02:57.271Z,10.70
2023-05-24T05:05:25.465Z,10.80
2023-05-24T05:07:55.077Z,10.90
2023-05-24T05:10:23.910Z,11.00
2023-05-24T05:12:52.449Z,10.90
2023-05-24T05:15:24.288Z,10.90
2023-05-24T05:17:52.438Z,10.90
2023-05-24T05:20:20.615Z,10.90
2023-05-24T05:22:49.369Z,11.10
2023-05-24T05:25:18.985Z,11.10
2023-05-24T05:27:47.268Z,11.00
2023-05-24T05:30:15.621Z,11.00
2023-05-24T05:32:44.362Z,11.10
2023-05-24T05:35:12.458Z,11.20
2023-05-24T05:37:40.523Z,11.20
2023-05-24T05:40:09.421Z,11.30
2023-05-24T05:42:39.086Z,11.50
2023-05-24T05:45:08.746Z,11.70
2023-05-24T05:47:37.413Z,11.70
2023-05-24T05:50:06.324Z,11.70
2023-05-24T05:52:36.562Z,11.70
2023-05-24T05:55:05.083Z,11.70
2023-05-24T05:57:33.059Z,11.50
2023-05-24T06:00:02.583Z,11.40
2023-05-24T06:02:31.150Z,11.30
2023-05-24T06:05:00.092Z,11.30
2023-05-24T06:07:28.255Z,11.20
2023-05-24T06:09:56.302Z,11.20
2023-05-24T06:12:24.733Z,11.40
2023-05-24T06:14:53.021Z,11.30
2023-05-24T06:17:24.573Z,11.30
2023-05-24T06:19:53.756Z,11.30
2023-05-24T06:22:22.338Z,11.40
2023-05-24T06:24:50.645Z,11.40
2023-05-24T06:27:18.990Z,11.50
2023-05-24T06:29:49.278Z,11.60
2023-05-24T06:32:18.742Z,11.60
2023-05-24T06:34:48.479Z,11.70
2023-05-24T06:37:16.669Z,11.80
2023-05-24T06:39:44.740Z,11.90
2023-05-24T06:42:14.330Z,12.10
2023-05-24T06:44:42.359Z,12.00
2023-05-24T06:47:10.757Z,12.10
2023-05-24T06:49:39.054Z,12.30
2023-05-24T06:52:08.947Z,12.40
2023-05-24T06:54:37.506Z,12.50
2023-05-24T06:57:06.081Z,12.40
2023-05-24T06:59:34.684Z,12.40
2023-05-24T07:02:04.238Z,12.40
2023-05-24T07:04:32.892Z,12.50
2023-05-24T07:07:01.228Z,12.50
2023-05-24T07:09:30.829Z,12.80
2023-05-24T07:11:58.805Z,12.70
2023-05-24T07:14:27.666Z,12.80
2023-05-24T07:16:57.581Z,12.80
2023-05-24T07:19:29.271Z,12.80
2023-05-24T07:21:57.965Z,13.00
2023-05-24T07:24:26.563Z,13.60
2023-05-24T07:26:57.866Z,12.90
2023-05-24T07:31:58.316Z,13.00
2023-05-24T07:34:30.009Z,13.00
2023-05-24T07:37:00.504Z,12.90
2023-05-24T07:39:29.229Z,13.00
2023-05-24T07:41:58.924Z,12.90
2023-05-24T07:44:27.040Z,12.90
2023-05-24T07:46:55.839Z,13.10
2023-05-24T07:49:24.163Z,13.10
2023-05-24T07:51:53.162Z,13.20
2023-05-24T07:54:21.872Z,12.90
2023-05-24T07:56:50.430Z,13.10
2023-05-24T07:59:20.084Z,13.30
2023-05-24T08:01:49.704Z,13.30
2023-05-24T08:04:17.616Z,13.20
2023-05-24T08:06:46.897Z,13.20
2023-05-24T08:09:15.046Z,13.20
2023-05-24T08:11:43.292Z,13.30
2023-05-24T08:14:11.843Z,13.20
2023-05-24T08:16:41.497Z,13.20
2023-05-24T08:19:09.521Z,13.50
2023-05-24T08:21:38.236Z,13.50
2023-05-24T08:24:09.344Z,13.60
2023-05-24T08:26:38.099Z,13.50
2023-05-24T08:29:07.973Z,13.60
2023-05-24T08:31:36.394Z,13.60
2023-05-24T08:34:06.348Z,13.70
2023-05-24T08:36:34.595Z,13.70
2023-05-24T08:39:05.131Z,13.80
2023-05-24T08:41:37.770Z,13.90
2023-05-24T08:44:07.684Z,13.90
2023-05-24T08:46:37.522Z,14.10
2023-05-24T08:49:09.249Z,14.30
2023-05-24T08:51:38.723Z,14.20
2023-05-24T08:54:08.461Z,14.10
2023-05-24T08:56:36.822Z,14.10
2023-05-24T08:59:04.979Z,14.20
2023-05-24T09:01:34.730Z,14.10
2023-05-24T09:04:07.732Z,14.30
2023-05-24T09:06:36.108Z,14.30
2023-05-24T09:09:07.846Z,14.40
2023-05-24T09:11:39.386Z,14.50
2023-05-24T09:14:07.594Z,14.50
2023-05-24T09:16:36.696Z,14.50
2023-05-24T09:19:04.757Z,14.80
2023-05-24T09:21:34.470Z,15.00
2023-05-24T09:24:03.571Z,15.20
2023-05-24T09:26:32.211Z,14.90
2023-05-24T09:29:00.235Z,14.90
2023-05-24T09:31:35.227Z,14.80
2023-05-24T09:34:04.224Z,14.90
2023-05-24T09:36:34.265Z,14.80
2023-05-24T09:39:10.336Z,14.70
2023-05-24T09:41:39.194Z,14.50
2023-05-24T09:44:08.101Z,14.60
2023-05-24T09:46:38.806Z,14.80
2023-05-24T09:49:08.679Z,14.90
2023-05-24T09:51:40.472Z,15.20
2023-05-24T09:54:10.117Z,15.50
2023-05-24T09:56:41.141Z,15.60
2023-05-24T09:59:10.276Z,15.80
2023-05-24T10:01:38.766Z,16.20
2023-05-24T10:04:09.801Z,16.10
2023-05-24T10:06:43.046Z,16.00
2023-05-24T10:09:11.600Z,16.10
2023-05-24T10:11:40.599Z,16.30
2023-05-24T10:14:11.955Z,16.40
2023-05-24T10:16:40.442Z,16.30
2023-05-24T10:19:08.614Z,16.20
2023-05-24T10:21:41.451Z,16.00
2023-05-24T10:24:12.546Z,16.00
2023-05-24T10:26:42.582Z,15.00
2023-05-24T10:29:18.740Z,15.20
2023-05-24T10:31:48.241Z,15.30
2023-05-24T10:36:46.801Z,15.20
2023-05-24T10:39:15.031Z,15.50
2023-05-24T10:41:44.295Z,15.70
2023-05-24T10:44:13.549Z,15.90
2023-05-24T10:47:10.048Z,15.80
2023-05-24T10:49:39.703Z,15.80
2023-05-24T10:52:13.559Z,15.70
2023-05-24T10:54:52.607Z,13.80
2023-05-24T10:57:32.124Z,15.70
2023-05-24T11:03:03.985Z,15.70
2023-05-24T11:05:36.972Z,16.30
2023-05-24T11:08:09.339Z,16.40
2023-05-24T11:10:37.502Z,16.60
2023-05-24T11:13:09.397Z,16.50
2023-05-24T11:15:37.448Z,16.50
2023-05-24T11:18:23.665Z,16.70
2023-05-24T11:20:52.961Z,16.70
2023-05-24T11:23:22.432Z,16.70
2023-05-24T11:25:50.657Z,17.00
2023-05-24T11:28:19.366Z,17.10
2023-05-24T11:30:49.145Z,16.90
2023-05-24T11:33:20.044Z,17.00
2023-05-24T11:35:49.207Z,16.90
2023-05-24T11:38:18.027Z,16.60
2023-05-24T11:40:49.331Z,16.80
2023-05-24T11:43:19.561Z,16.70
2023-05-24T11:45:50.196Z,16.80
2023-05-24T11:48:19.564Z,17.00
2023-05-24T11:50:50.569Z,16.90
2023-05-24T11:53:20.686Z,17.20
2023-05-24T11:55:51.401Z,16.90
2023-05-24T11:58:25.273Z,17.00
2023-05-24T12:00:53.866Z,17.30
2023-05-24T12:03:22.016Z,17.10
2023-05-24T12:05:50.307Z,17.40
2023-05-24T12:08:18.648Z,17.30
2023-05-24T12:10:47.125Z,17.30
2023-05-24T12:13:24.833Z,17.10
2023-05-24T12:15:55.833Z,17.30
2023-05-24T12:18:27.446Z,17.40
2023-05-24T12:23:27.938Z,17.70
2023-05-24T12:26:00.018Z,18.00
2023-05-24T12:28:35.941Z,18.00
2023-05-24T12:31:05.044Z,18.00
2023-05-24T12:33:34.490Z,17.70
2023-05-24T12:36:03.478Z,17.80
2023-05-24T12:38:33.114Z,17.60
2023-05-24T12:43:34.542Z,18.10
2023-05-24T12:46:03.445Z,18.20
2023-05-24T12:48:32.320Z,18.00
2023-05-24T12:51:00.693Z,17.80
2023-05-24T12:53:29.161Z,18.10
2023-05-24T12:55:57.928Z,18.30
2023-05-24T12:58:26.479Z,18.50
2023-05-24T13:00:56.405Z,18.40
2023-05-24T13:03:24.551Z,18.30
2023-05-24T13:05:52.693Z,18.50
2023-05-24T13:08:20.819Z,18.70
2023-05-24T13:10:50.718Z,19.10
2023-05-24T13:13:18.844Z,18.80
2023-05-24T13:15:47.447Z,18.80
2023-05-24T13:18:17.560Z,18.80
2023-05-24T13:20:45.901Z,18.90
2023-05-24T13:23:14.426Z,18.80
2023-05-24T13:25:42.943Z,19.20
2023-05-24T13:28:11.050Z,19.50
2023-05-24T13:30:42.126Z,19.50
2023-05-24T13:33:10.448Z,19.50
2023-05-24T13:35:43.893Z,19.80
2023-05-24T13:38:14.338Z,20.20
2023-05-24T13:40:42.977Z,20.30
2023-05-24T13:43:12.086Z,20.60
2023-05-24T13:45:40.488Z,20.80
2023-05-24T13:48:09.168Z,21.20
2023-05-24T13:50:39.711Z,21.00
2023-05-24T13:53:09.039Z,20.90
2023-05-24T13:55:39.057Z,21.20
2023-05-24T13:58:07.031Z,21.40
2023-05-24T14:00:36.078Z,22.10
2023-05-24T14:03:05.975Z,22.30
2023-05-24T14:05:34.450Z,22.20
2023-05-24T14:08:07.103Z,22.20
2023-05-24T14:10:37.071Z,21.60
2023-05-24T14:13:26.595Z,21.30
2023-05-24T14:15:54.285Z,21.60
2023-05-24T14:18:22.450Z,21.60
2023-05-24T14:20:50.478Z,22.00
2023-05-24T14:23:20.014Z,22.50
2023-05-24T14:25:48.238Z,23.10
2023-05-24T14:28:16.478Z,23.60
2023-05-24T14:30:44.457Z,24.30
2023-05-24T14:33:12.794Z,23.80
2023-05-24T14:35:41.372Z,24.00
2023-05-24T14:38:11.100Z,24.90
2023-05-24T14:40:40.793Z,24.30
2023-05-24T14:43:10.695Z,24.70
2023-05-24T14:45:41.596Z,24.80
2023-05-24T14:48:12.318Z,24.60
2023-05-24T14:50:41.371Z,23.50
2023-05-24T14:53:09.823Z,22.90
2023-05-24T14:55:38.000Z,23.30
2023-05-24T14:58:09.225Z,23.20
2023-05-24T15:00:37.610Z,23.20
2023-05-24T15:03:08.090Z,23.50
2023-05-24T15:05:36.959Z,23.80
2023-05-24T15:08:05.877Z,24.30
2023-05-24T15:10:34.265Z,24.00
2023-05-24T15:13:03.772Z,23.70
2023-05-24T15:15:33.227Z,23.90
2023-05-24T15:18:01.217Z,24.60
2023-05-24T15:20:29.256Z,24.50
2023-05-24T15:22:57.261Z,24.20
2023-05-24T15:25:25.561Z,23.70
2023-05-24T15:27:53.500Z,23.10
2023-05-24T15:30:23.617Z,22.50
2023-05-24T15:32:53.397Z,21.80
2023-05-24T15:35:21.913Z,22.00
2023-05-24T15:37:49.965Z,21.60
2023-05-24T15:40:18.738Z,21.80
2023-05-24T15:42:46.649Z,22.60
2023-05-24T15:45:14.645Z,22.90
2023-05-24T15:47:42.536Z,22.60
2023-05-24T15:50:12.873Z,22.50
2023-05-24T15:52:41.018Z,23.50
2023-05-24T15:55:10.333Z,23.40
2023-05-24T15:57:38.207Z,23.60
2023-05-24T16:00:07.312Z,23.30
2023-05-24T16:02:35.673Z,22.00
2023-05-24T16:05:03.848Z,21.80
2023-05-24T16:07:33.296Z,21.40
2023-05-24T16:10:02.022Z,20.80
2023-05-24T16:12:30.906Z,20.50
2023-05-24T16:14:59.662Z,20.10
2023-05-24T16:17:28.158Z,19.40
2023-05-24T16:19:56.105Z,19.00
2023-05-24T16:22:24.688Z,18.80
2023-05-24T16:24:54.191Z,18.30
2023-05-24T16:27:22.901Z,18.10
2023-05-24T16:29:50.962Z,17.70
2023-05-24T16:37:20.097Z,17.40
2023-05-24T16:39:48.307Z,17.10
2023-05-24T16:42:17.833Z,17.30
2023-05-24T16:44:46.170Z,17.40
2023-05-24T16:47:14.633Z,17.40
2023-05-24T16:49:42.764Z,17.40
2023-05-24T16:52:11.197Z,17.20
2023-05-24T16:54:39.191Z,17.00
2023-05-24T16:57:07.813Z,17.00
2023-05-24T16:59:38.817Z,16.90
2023-05-24T17:02:07.197Z,16.90
2023-05-24T17:04:35.833Z,16.90
2023-05-24T17:07:04.513Z,16.70
2023-05-24T17:09:33.071Z,16.90
2023-05-24T17:12:02.901Z,16.90
2023-05-24T17:14:31.485Z,16.90
2023-05-24T17:17:01.284Z,16.90
2023-05-24T17:19:29.273Z,16.90
2023-05-24T17:21:57.418Z,16.60
2023-05-24T17:24:27.668Z,16.60
2023-05-24T17:26:55.853Z,16.60
2023-05-24T17:29:26.445Z,16.50
2023-05-24T17:31:54.749Z,16.40
2023-05-24T17:34:24.587Z,16.50
2023-05-24T17:36:52.926Z,16.50
2023-05-24T17:39:21.927Z,16.40
2023-05-24T17:41:49.988Z,16.40
2023-05-24T17:44:19.122Z,16.40
2023-05-24T17:46:47.256Z,16.20
2023-05-24T17:49:15.581Z,16.20
2023-05-24T17:51:47.796Z,16.10
2023-05-24T17:54:15.945Z,16.00
2023-05-24T17:56:44.090Z,16.00
2023-05-24T17:59:12.414Z,16.00
2023-05-24T18:01:41.001Z,15.90
2023-05-24T18:04:09.504Z,16.00
2023-05-24T18:06:42.176Z,15.90
2023-05-24T18:09:13.409Z,15.90
2023-05-24T18:11:41.438Z,15.70
2023-05-24T18:14:09.750Z,15.80
2023-05-24T18:16:37.881Z,15.80
2023-05-24T18:19:06.349Z,15.70
2023-05-24T18:21:35.369Z,15.70
2023-05-24T18:24:03.840Z,15.60
2023-05-24T18:26:33.530Z,15.60
2023-05-24T18:29:01.522Z,15.60
2023-05-24T18:31:32.224Z,15.40
2023-05-24T18:34:01.911Z,15.40
2023-05-24T18:36:30.125Z,15.40
2023-05-24T18:38:58.632Z,15.30
2023-05-24T18:41:26.731Z,15.20
2023-05-24T18:43:56.085Z,15.30
2023-05-24T18:46:26.099Z,15.20
2023-05-24T18:48:54.879Z,15.20
2023-05-24T18:51:22.874Z,15.20
2023-05-24T18:53:51.737Z,15.10
2023-05-24T18:56:19.785Z,15.00
2023-05-24T18:58:50.139Z,15.00
2023-05-24T19:01:21.457Z,15.00
2023-05-24T19:03:52.781Z,15.00
2023-05-24T19:06:23.074Z,14.70
2023-05-24T19:08:51.428Z,14.90
2023-05-24T19:11:20.080Z,14.90
2023-05-24T19:13:48.189Z,14.90
2023-05-24T19:16:18.325Z,14.90
2023-05-24T19:18:49.036Z,14.90
2023-05-24T19:21:17.559Z,14.90
2023-05-24T19:23:45.613Z,14.90
2023-05-24T19:26:17.890Z,14.80
2023-05-24T19:28:50.572Z,14.80
2023-05-24T19:31:19.251Z,14.70
2023-05-24T19:33:59.846Z,14.70
2023-05-24T19:36:34.019Z,14.60
2023-05-24T19:39:02.035Z,14.60
2023-05-24T19:41:30.856Z,14.50
2023-05-24T19:43:59.403Z,14.40
2023-05-24T19:46:27.894Z,14.40
2023-05-24T19:48:57.556Z,14.30
2023-05-24T19:51:25.874Z,14.30
2023-05-24T19:53:53.891Z,14.20
2023-05-24T19:56:23.425Z,14.10
2023-05-24T19:58:52.358Z,14.10
2023-05-24T20:01:20.403Z,14.10
2023-05-24T20:03:49.481Z,14.10
2023-05-24T20:06:21.027Z,14.00
2023-05-24T20:08:49.575Z,14.00
2023-05-24T20:11:19.364Z,14.00
2023-05-24T20:13:47.343Z,14.00
2023-05-24T20:16:15.587Z,14.00
2023-05-24T20:18:43.756Z,13.90
2023-05-24T20:21:12.276Z,13.90
2023-05-24T20:23:41.920Z,13.80
2023-05-24T20:26:12.582Z,13.80
2023-05-24T20:28:42.911Z,13.80
2023-05-24T20:31:10.962Z,13.80
2023-05-24T20:33:45.156Z,13.80
2023-05-24T20:36:14.925Z,13.70
2023-05-24T20:38:44.760Z,13.70
2023-05-24T20:41:12.963Z,13.80
2023-05-24T20:43:41.883Z,13.70
2023-05-24T20:46:12.315Z,13.40
2023-05-24T20:48:42.211Z,13.60
2023-05-24T20:51:14.557Z,13.60
2023-05-24T20:53:45.636Z,13.70
2023-05-24T20:56:13.898Z,13.70
2023-05-24T20:58:42.255Z,13.70
2023-05-24T21:01:10.610Z,13.70
2023-05-24T21:03:41.061Z,13.70
2023-05-24T21:06:09.222Z,13.80
2023-05-24T21:08:38.662Z,13.80
2023-05-24T21:11:10.661Z,13.80
2023-05-24T21:13:38.785Z,13.80
2023-05-24T21:16:08.225Z,13.80
2023-05-24T21:18:36.356Z,13.80
2023-05-24T21:21:04.695Z,13.90
2023-05-24T21:23:33.637Z,13.90
2023-05-24T21:26:02.764Z,13.90
2023-05-24T21:28:32.248Z,14.00
2023-05-24T21:31:01.714Z,14.00
2023-05-24T21:33:29.762Z,14.00
2023-05-24T21:36:00.864Z,13.90
2023-05-24T21:38:28.876Z,13.90
2023-05-24T21:40:57.440Z,13.80
2023-05-24T21:43:25.609Z,13.70
2023-05-24T21:45:54.896Z,13.70
2023-05-24T21:48:22.972Z,13.60
2023-05-24T21:50:51.906Z,13.60
2023-05-24T21:53:20.144Z,13.50
2023-05-24T21:55:48.257Z,13.50
2023-05-24T21:58:16.347Z,13.40
2023-05-24T22:00:48.104Z,13.40
2023-05-24T22:03:18.563Z,13.40
2023-05-24T22:05:46.814Z,13.40
2023-05-24T22:08:15.138Z,13.30
2023-05-24T22:10:44.110Z,13.30
2023-05-24T22:13:13.853Z,13.20
2023-05-24T22:15:42.044Z,13.20
2023-05-24T22:18:11.792Z,13.10
2023-05-24T22:20:41.191Z,13.10
2023-05-24T22:23:09.331Z,13.00
2023-05-24T22:25:37.268Z,13.00
2023-05-24T22:28:07.041Z,12.90
2023-05-24T22:30:36.950Z,12.80
2023-05-24T22:33:05.027Z,12.80
2023-05-24T22:35:33.676Z,12.70
2023-05-24T22:38:03.312Z,12.70
2023-05-24T22:40:31.288Z,12.60
2023-05-24T22:42:59.788Z,12.60
2023-05-24T22:45:27.862Z,12.50
2023-05-24T22:47:58.331Z,12.50
2023-05-24T22:50:27.014Z,12.40
2023-05-24T22:52:56.558Z,12.30
2023-05-24T22:55:26.371Z,12.20
2023-05-24T22:57:54.701Z,12.20
2023-05-24T23:00:22.835Z,12.20
2023-05-24T23:02:51.209Z,12.10
2023-05-24T23:05:21.609Z,12.00
2023-05-24T23:07:49.675Z,12.00
2023-05-24T23:10:17.818Z,11.80
2023-05-24T23:12:48.716Z,11.80
2023-05-24T23:15:18.393Z,11.80
2023-05-24T23:20:16.750Z,11.60
2023-05-24T23:22:44.816Z,11.60
2023-05-24T23:25:13.118Z,11.60
2023-05-24T23:27:41.462Z,11.60
2023-05-24T23:30:11.600Z,11.50
2023-05-24T23:32:39.605Z,11.50
2023-05-24T23:35:08.090Z,11.50
2023-05-24T23:37:36.245Z,11.40
2023-05-24T23:40:06.603Z,11.40
2023-05-24T23:42:35.071Z,11.30
2023-05-24T23:45:03.404Z,11.50
2023-05-24T23:47:32.771Z,11.30
2023-05-24T23:50:00.771Z,11.20
2023-05-24T23:52:28.840Z,11.10
2023-05-24T23:54:57.177Z,11.10
2023-05-24T23:57:27.116Z,11.00
2023-05-24T23:59:55.459Z,11.00
